sensor_id;sensor_type;location;lat;lon;timestamp;P1;durP1;ratioP1;P2;durP2;ratioP2
34212;SDS011;20477;51.390;8.102;2024-01-25T00:01:31;55.50;;;10.55;;
34212;SDS011;20477;51.390;8.102;2024-01-25T00:03:58;61.95;;;10.82;;
34212;SDS011;20477;51.390;8.102;2024-01-25T00:06:26;55.88;;;10.43;;
34212;SDS011;20477;51.390;8.102;2024-01-25T00:08:53;47.88;;;9.85;;
34212;SDS011;20477;51.390;8.102;2024-01-25T00:11:20;68.22;;;11.68;;
34212;SDS011;20477;51.390;8.102;2024-01-25T00:13:48;45.65;;;9.98;;
34212;SDS011;20477;51.390;8.102;2024-01-25T00:16:18;55.03;;;10.73;;
34212;SDS011;20477;51.390;8.102;2024-01-25T00:18:45;60.42;;;10.90;;
34212;SDS011;20477;51.390;8.102;2024-01-25T00:21:12;66.88;;;11.93;;
34212;SDS011;20477;51.390;8.102;2024-01-25T00:23:40;52.95;;;11.95;;
34212;SDS011;20477;51.390;8.102;2024-01-25T00:26:07;59.05;;;12.45;;
34212;SDS011;20477;51.390;8.102;2024-01-25T00:28:34;60.35;;;12.10;;
34212;SDS011;20477;51.390;8.102;2024-01-25T00:31:01;61.03;;;11.77;;
34212;SDS011;20477;51.390;8.102;2024-01-25T00:33:30;52.88;;;12.45;;
34212;SDS011;20477;51.390;8.102;2024-01-25T00:35:58;62.10;;;12.27;;
34212;SDS011;20477;51.390;8.102;2024-01-25T00:38:25;58.45;;;13.82;;
34212;SDS011;20477;51.390;8.102;2024-01-25T00:40:53;72.35;;;14.20;;
34212;SDS011;20477;51.390;8.102;2024-01-25T00:43:21;52.60;;;12.55;;
34212;SDS011;20477;51.390;8.102;2024-01-25T00:45:48;58.88;;;13.32;;
34212;SDS011;20477;51.390;8.102;2024-01-25T00:48:16;49.78;;;11.80;;
34212;SDS011;20477;51.390;8.102;2024-01-25T00:50:45;67.38;;;14.80;;
34212;SDS011;20477;51.390;8.102;2024-01-25T00:53:12;68.78;;;13.57;;
34212;SDS011;20477;51.390;8.102;2024-01-25T00:55:40;50.70;;;13.50;;
34212;SDS011;20477;51.390;8.102;2024-01-25T00:58:08;63.33;;;16.10;;
34212;SDS011;20477;51.390;8.102;2024-01-25T01:00:35;68.20;;;16.15;;
34212;SDS011;20477;51.390;8.102;2024-01-25T01:03:03;73.30;;;15.32;;
34212;SDS011;20477;51.390;8.102;2024-01-25T01:05:31;69.20;;;14.52;;
34212;SDS011;20477;51.390;8.102;2024-01-25T01:08:00;50.67;;;12.63;;
34212;SDS011;20477;51.390;8.102;2024-01-25T01:10:28;63.65;;;14.35;;
34212;SDS011;20477;51.390;8.102;2024-01-25T01:12:55;58.78;;;13.25;;
34212;SDS011;20477;51.390;8.102;2024-01-25T01:15:22;54.45;;;11.95;;
34212;SDS011;20477;51.390;8.102;2024-01-25T01:17:50;70.32;;;15.13;;
34212;SDS011;20477;51.390;8.102;2024-01-25T01:20:17;58.30;;;12.40;;
34212;SDS011;20477;51.390;8.102;2024-01-25T01:22:45;54.50;;;12.82;;
34212;SDS011;20477;51.390;8.102;2024-01-25T01:25:13;59.90;;;13.20;;
34212;SDS011;20477;51.390;8.102;2024-01-25T01:27:41;62.75;;;12.32;;
34212;SDS011;20477;51.390;8.102;2024-01-25T01:30:08;52.90;;;13.40;;
34212;SDS011;20477;51.390;8.102;2024-01-25T01:32:36;55.78;;;12.65;;
34212;SDS011;20477;51.390;8.102;2024-01-25T01:35:04;68.50;;;13.40;;
34212;SDS011;20477;51.390;8.102;2024-01-25T01:37:31;54.03;;;12.40;;
34212;SDS011;20477;51.390;8.102;2024-01-25T01:39:58;60.53;;;14.20;;
34212;SDS011;20477;51.390;8.102;2024-01-25T01:42:27;56.97;;;13.55;;
34212;SDS011;20477;51.390;8.102;2024-01-25T01:44:55;63.55;;;15.10;;
34212;SDS011;20477;51.390;8.102;2024-01-25T01:47:22;55.00;;;12.40;;
34212;SDS011;20477;51.390;8.102;2024-01-25T01:49:49;57.83;;;13.15;;
34212;SDS011;20477;51.390;8.102;2024-01-25T01:52:17;59.72;;;11.90;;
34212;SDS011;20477;51.390;8.102;2024-01-25T01:54:45;58.58;;;14.13;;
34212;SDS011;20477;51.390;8.102;2024-01-25T01:57:13;51.13;;;11.30;;
34212;SDS011;20477;51.390;8.102;2024-01-25T01:59:41;55.90;;;12.20;;
34212;SDS011;20477;51.390;8.102;2024-01-25T02:02:08;48.78;;;11.18;;
34212;SDS011;20477;51.390;8.102;2024-01-25T02:04:36;56.20;;;12.18;;
34212;SDS011;20477;51.390;8.102;2024-01-25T02:07:03;58.33;;;12.88;;
34212;SDS011;20477;51.390;8.102;2024-01-25T02:09:31;60.97;;;13.57;;
34212;SDS011;20477;51.390;8.102;2024-01-25T02:11:58;67.85;;;12.90;;
34212;SDS011;20477;51.390;8.102;2024-01-25T02:14:26;61.63;;;11.05;;
34212;SDS011;20477;51.390;8.102;2024-01-25T02:16:54;56.67;;;9.65;;
34212;SDS011;20477;51.390;8.102;2024-01-25T02:19:22;45.55;;;12.93;;
34212;SDS011;20477;51.390;8.102;2024-01-25T02:21:49;61.90;;;12.07;;
34212;SDS011;20477;51.390;8.102;2024-01-25T02:24:20;64.00;;;12.63;;
34212;SDS011;20477;51.390;8.102;2024-01-25T02:26:47;55.17;;;11.32;;
34212;SDS011;20477;51.390;8.102;2024-01-25T02:29:14;61.50;;;11.13;;
34212;SDS011;20477;51.390;8.102;2024-01-25T02:31:42;54.38;;;12.52;;
34212;SDS011;20477;51.390;8.102;2024-01-25T02:34:09;60.00;;;12.55;;
34212;SDS011;20477;51.390;8.102;2024-01-25T02:36:36;56.85;;;10.68;;
34212;SDS011;20477;51.390;8.102;2024-01-25T02:39:04;59.22;;;11.43;;
34212;SDS011;20477;51.390;8.102;2024-01-25T02:41:32;59.85;;;10.80;;
34212;SDS011;20477;51.390;8.102;2024-01-25T02:44:00;52.10;;;11.55;;
34212;SDS011;20477;51.390;8.102;2024-01-25T02:46:27;56.78;;;10.90;;
34212;SDS011;20477;51.390;8.102;2024-01-25T02:48:54;57.20;;;11.73;;
34212;SDS011;20477;51.390;8.102;2024-01-25T02:51:22;61.92;;;11.75;;
34212;SDS011;20477;51.390;8.102;2024-01-25T02:53:49;61.88;;;12.20;;
34212;SDS011;20477;51.390;8.102;2024-01-25T02:56:16;61.28;;;11.13;;
34212;SDS011;20477;51.390;8.102;2024-01-25T02:58:45;57.67;;;10.77;;
34212;SDS011;20477;51.390;8.102;2024-01-25T03:01:12;57.30;;;11.25;;
34212;SDS011;20477;51.390;8.102;2024-01-25T03:03:40;57.40;;;11.02;;
34212;SDS011;20477;51.390;8.102;2024-01-25T03:06:07;56.28;;;11.75;;
34212;SDS011;20477;51.390;8.102;2024-01-25T03:08:34;63.33;;;12.73;;
34212;SDS011;20477;51.390;8.102;2024-01-25T03:11:02;53.35;;;10.73;;
34212;SDS011;20477;51.390;8.102;2024-01-25T03:13:29;53.53;;;10.70;;
34212;SDS011;20477;51.390;8.102;2024-01-25T03:15:58;51.28;;;10.45;;
34212;SDS011;20477;51.390;8.102;2024-01-25T03:18:25;47.60;;;10.55;;
34212;SDS011;20477;51.390;8.102;2024-01-25T03:20:52;51.00;;;10.40;;
34212;SDS011;20477;51.390;8.102;2024-01-25T03:23:20;59.17;;;11.60;;
34212;SDS011;20477;51.390;8.102;2024-01-25T03:25:47;41.20;;;10.82;;
34212;SDS011;20477;51.390;8.102;2024-01-25T03:28:14;58.83;;;9.93;;
34212;SDS011;20477;51.390;8.102;2024-01-25T03:30:41;51.08;;;9.77;;
34212;SDS011;20477;51.390;8.102;2024-01-25T03:33:11;63.28;;;9.25;;
34212;SDS011;20477;51.390;8.102;2024-01-25T03:35:38;49.60;;;8.32;;
34212;SDS011;20477;51.390;8.102;2024-01-25T03:38:05;41.50;;;9.18;;
34212;SDS011;20477;51.390;8.102;2024-01-25T03:40:33;62.10;;;9.27;;
34212;SDS011;20477;51.390;8.102;2024-01-25T03:43:00;45.28;;;8.15;;
34212;SDS011;20477;51.390;8.102;2024-01-25T03:45:44;42.28;;;7.85;;
34212;SDS011;20477;51.390;8.102;2024-01-25T03:48:13;42.88;;;8.27;;
34212;SDS011;20477;51.390;8.102;2024-01-25T03:50:40;48.75;;;9.57;;
34212;SDS011;20477;51.390;8.102;2024-01-25T03:53:08;51.90;;;10.60;;
34212;SDS011;20477;51.390;8.102;2024-01-25T03:55:35;47.85;;;8.63;;
34212;SDS011;20477;51.390;8.102;2024-01-25T03:58:02;52.42;;;10.95;;
34212;SDS011;20477;51.390;8.102;2024-01-25T04:00:30;52.65;;;10.07;;
34212;SDS011;20477;51.390;8.102;2024-01-25T04:02:57;50.45;;;8.60;;
34212;SDS011;20477;51.390;8.102;2024-01-25T04:05:26;59.88;;;9.25;;
34212;SDS011;20477;51.390;8.102;2024-01-25T04:07:53;49.55;;;9.95;;
34212;SDS011;20477;51.390;8.102;2024-01-25T04:10:20;38.22;;;9.30;;
34212;SDS011;20477;51.390;8.102;2024-01-25T04:12:48;45.28;;;9.90;;
34212;SDS011;20477;51.390;8.102;2024-01-25T04:15:15;59.90;;;9.93;;
34212;SDS011;20477;51.390;8.102;2024-01-25T04:17:42;48.05;;;9.40;;
34212;SDS011;20477;51.390;8.102;2024-01-25T04:20:10;43.25;;;8.65;;
34212;SDS011;20477;51.390;8.102;2024-01-25T04:22:39;45.17;;;9.77;;
34212;SDS011;20477;51.390;8.102;2024-01-25T04:25:06;53.53;;;9.23;;
34212;SDS011;20477;51.390;8.102;2024-01-25T04:27:34;49.97;;;9.57;;
34212;SDS011;20477;51.390;8.102;2024-01-25T04:30:01;61.40;;;11.55;;
34212;SDS011;20477;51.390;8.102;2024-01-25T04:32:28;59.50;;;9.13;;
34212;SDS011;20477;51.390;8.102;2024-01-25T04:34:56;48.95;;;9.07;;
34212;SDS011;20477;51.390;8.102;2024-01-25T04:37:23;53.78;;;9.77;;
34212;SDS011;20477;51.390;8.102;2024-01-25T04:39:52;43.30;;;8.35;;
34212;SDS011;20477;51.390;8.102;2024-01-25T04:42:19;48.50;;;10.50;;
34212;SDS011;20477;51.390;8.102;2024-01-25T04:44:47;43.67;;;9.05;;
34212;SDS011;20477;51.390;8.102;2024-01-25T04:47:14;51.70;;;9.75;;
34212;SDS011;20477;51.390;8.102;2024-01-25T04:49:41;60.50;;;9.88;;
34212;SDS011;20477;51.390;8.102;2024-01-25T04:52:09;55.95;;;9.70;;
34212;SDS011;20477;51.390;8.102;2024-01-25T04:54:36;47.85;;;9.15;;
34212;SDS011;20477;51.390;8.102;2024-01-25T04:57:05;53.95;;;10.07;;
34212;SDS011;20477;51.390;8.102;2024-01-25T04:59:32;61.53;;;9.57;;
34212;SDS011;20477;51.390;8.102;2024-01-25T05:01:59;63.72;;;10.65;;
34212;SDS011;20477;51.390;8.102;2024-01-25T05:04:28;49.40;;;10.20;;
34212;SDS011;20477;51.390;8.102;2024-01-25T05:06:55;43.42;;;9.73;;
34212;SDS011;20477;51.390;8.102;2024-01-25T05:09:23;52.38;;;9.52;;
34212;SDS011;20477;51.390;8.102;2024-01-25T05:11:50;53.22;;;9.40;;
34212;SDS011;20477;51.390;8.102;2024-01-25T05:14:19;47.00;;;9.38;;
34212;SDS011;20477;51.390;8.102;2024-01-25T05:16:46;58.00;;;10.32;;
34212;SDS011;20477;51.390;8.102;2024-01-25T05:19:13;49.90;;;10.60;;
34212;SDS011;20477;51.390;8.102;2024-01-25T05:21:41;46.17;;;11.40;;
34212;SDS011;20477;51.390;8.102;2024-01-25T05:24:08;58.33;;;10.55;;
34212;SDS011;20477;51.390;8.102;2024-01-25T05:26:36;75.20;;;11.30;;
34212;SDS011;20477;51.390;8.102;2024-01-25T05:29:03;59.22;;;10.45;;
34212;SDS011;20477;51.390;8.102;2024-01-25T05:31:32;50.17;;;10.32;;
34212;SDS011;20477;51.390;8.102;2024-01-25T05:33:59;60.40;;;12.18;;
34212;SDS011;20477;51.390;8.102;2024-01-25T05:36:27;68.28;;;10.48;;
34212;SDS011;20477;51.390;8.102;2024-01-25T05:38:54;61.47;;;10.80;;
34212;SDS011;20477;51.390;8.102;2024-01-25T05:41:21;55.25;;;11.00;;
34212;SDS011;20477;51.390;8.102;2024-01-25T05:43:49;45.97;;;9.32;;
34212;SDS011;20477;51.390;8.102;2024-01-25T05:46:16;53.45;;;10.65;;
34212;SDS011;20477;51.390;8.102;2024-01-25T05:48:44;49.45;;;9.40;;
34212;SDS011;20477;51.390;8.102;2024-01-25T05:51:12;67.72;;;10.15;;
34212;SDS011;20477;51.390;8.102;2024-01-25T05:53:39;52.58;;;10.98;;
34212;SDS011;20477;51.390;8.102;2024-01-25T05:56:06;59.55;;;11.30;;
34212;SDS011;20477;51.390;8.102;2024-01-25T05:58:34;63.10;;;12.18;;
34212;SDS011;20477;51.390;8.102;2024-01-25T06:01:01;52.50;;;9.93;;
34212;SDS011;20477;51.390;8.102;2024-01-25T06:03:29;71.45;;;11.77;;
34212;SDS011;20477;51.390;8.102;2024-01-25T06:05:57;55.28;;;10.43;;
34212;SDS011;20477;51.390;8.102;2024-01-25T06:08:25;56.60;;;10.85;;
34212;SDS011;20477;51.390;8.102;2024-01-25T06:10:52;54.90;;;10.10;;
34212;SDS011;20477;51.390;8.102;2024-01-25T06:13:19;70.03;;;11.45;;
34212;SDS011;20477;51.390;8.102;2024-01-25T06:15:47;55.15;;;10.70;;
34212;SDS011;20477;51.390;8.102;2024-01-25T06:18:14;54.13;;;11.25;;
34212;SDS011;20477;51.390;8.102;2024-01-25T06:20:42;55.65;;;11.52;;
34212;SDS011;20477;51.390;8.102;2024-01-25T06:23:10;60.45;;;12.32;;
34212;SDS011;20477;51.390;8.102;2024-01-25T06:25:38;83.53;;;12.57;;
34212;SDS011;20477;51.390;8.102;2024-01-25T06:28:05;64.80;;;12.60;;
34212;SDS011;20477;51.390;8.102;2024-01-25T06:30:32;70.93;;;12.32;;
34212;SDS011;20477;51.390;8.102;2024-01-25T06:33:00;68.93;;;13.15;;
34212;SDS011;20477;51.390;8.102;2024-01-25T06:35:27;52.17;;;11.32;;
34212;SDS011;20477;51.390;8.102;2024-01-25T06:37:55;49.30;;;13.77;;
34212;SDS011;20477;51.390;8.102;2024-01-25T06:40:23;64.00;;;12.65;;
34212;SDS011;20477;51.390;8.102;2024-01-25T06:42:51;79.35;;;14.40;;
34212;SDS011;20477;51.390;8.102;2024-01-25T06:45:18;63.58;;;11.98;;
34212;SDS011;20477;51.390;8.102;2024-01-25T06:47:45;72.68;;;12.82;;
34212;SDS011;20477;51.390;8.102;2024-01-25T06:50:13;59.63;;;12.68;;
34212;SDS011;20477;51.390;8.102;2024-01-25T06:52:40;58.85;;;13.63;;
34212;SDS011;20477;51.390;8.102;2024-01-25T06:55:08;57.63;;;12.55;;
34212;SDS011;20477;51.390;8.102;2024-01-25T06:57:37;71.00;;;13.57;;
34212;SDS011;20477;51.390;8.102;2024-01-25T07:00:04;61.97;;;15.02;;
34212;SDS011;20477;51.390;8.102;2024-01-25T07:02:33;65.20;;;14.13;;
34212;SDS011;20477;51.390;8.102;2024-01-25T07:05:00;74.30;;;14.48;;
34212;SDS011;20477;51.390;8.102;2024-01-25T07:07:28;66.47;;;15.20;;
34212;SDS011;20477;51.390;8.102;2024-01-25T07:09:56;58.38;;;12.85;;
34212;SDS011;20477;51.390;8.102;2024-01-25T07:12:23;70.25;;;15.75;;
34212;SDS011;20477;51.390;8.102;2024-01-25T07:14:52;71.18;;;14.38;;
34212;SDS011;20477;51.390;8.102;2024-01-25T07:17:19;67.88;;;15.60;;
34212;SDS011;20477;51.390;8.102;2024-01-25T07:19:46;70.70;;;15.15;;
34212;SDS011;20477;51.390;8.102;2024-01-25T07:22:14;62.97;;;14.02;;
34212;SDS011;20477;51.390;8.102;2024-01-25T07:24:41;76.90;;;15.68;;
34212;SDS011;20477;51.390;8.102;2024-01-25T07:27:09;74.53;;;15.77;;
34212;SDS011;20477;51.390;8.102;2024-01-25T07:29:36;73.55;;;16.17;;
34212;SDS011;20477;51.390;8.102;2024-01-25T07:32:05;76.22;;;14.57;;
34212;SDS011;20477;51.390;8.102;2024-01-25T07:34:32;62.25;;;14.02;;
34212;SDS011;20477;51.390;8.102;2024-01-25T07:37:00;65.40;;;14.00;;
34212;SDS011;20477;51.390;8.102;2024-01-25T07:39:27;68.20;;;13.90;;
34212;SDS011;20477;51.390;8.102;2024-01-25T07:41:54;55.50;;;12.73;;
34212;SDS011;20477;51.390;8.102;2024-01-25T07:44:21;76.88;;;17.17;;
34212;SDS011;20477;51.390;8.102;2024-01-25T07:46:49;74.70;;;14.75;;
34212;SDS011;20477;51.390;8.102;2024-01-25T07:49:17;62.42;;;13.73;;
34212;SDS011;20477;51.390;8.102;2024-01-25T07:51:45;65.45;;;14.68;;
34212;SDS011;20477;51.390;8.102;2024-01-25T07:54:12;56.42;;;13.00;;
34212;SDS011;20477;51.390;8.102;2024-01-25T07:56:40;76.32;;;14.80;;
34212;SDS011;20477;51.390;8.102;2024-01-25T07:59:07;63.38;;;14.32;;
34212;SDS011;20477;51.390;8.102;2024-01-25T08:01:34;81.97;;;15.48;;
34212;SDS011;20477;51.390;8.102;2024-01-25T08:04:02;68.68;;;16.85;;
34212;SDS011;20477;51.390;8.102;2024-01-25T08:06:30;58.63;;;13.80;;
34212;SDS011;20477;51.390;8.102;2024-01-25T08:08:58;60.42;;;14.27;;
34212;SDS011;20477;51.390;8.102;2024-01-25T08:11:25;60.22;;;13.38;;
34212;SDS011;20477;51.390;8.102;2024-01-25T08:13:53;70.43;;;14.57;;
34212;SDS011;20477;51.390;8.102;2024-01-25T08:16:20;59.80;;;13.57;;
34212;SDS011;20477;51.390;8.102;2024-01-25T08:18:47;72.28;;;15.13;;
34212;SDS011;20477;51.390;8.102;2024-01-25T08:21:15;68.07;;;14.68;;
34212;SDS011;20477;51.390;8.102;2024-01-25T08:23:44;60.25;;;14.00;;
34212;SDS011;20477;51.390;8.102;2024-01-25T08:26:12;61.65;;;12.48;;
34212;SDS011;20477;51.390;8.102;2024-01-25T08:28:39;63.17;;;12.60;;
34212;SDS011;20477;51.390;8.102;2024-01-25T08:31:07;49.00;;;11.38;;
34212;SDS011;20477;51.390;8.102;2024-01-25T08:33:34;63.38;;;14.00;;
34212;SDS011;20477;51.390;8.102;2024-01-25T08:36:02;75.32;;;13.93;;
34212;SDS011;20477;51.390;8.102;2024-01-25T08:38:29;52.95;;;11.45;;
34212;SDS011;20477;51.390;8.102;2024-01-25T08:40:58;52.75;;;11.57;;
34212;SDS011;20477;51.390;8.102;2024-01-25T08:43:25;69.43;;;15.20;;
34212;SDS011;20477;51.390;8.102;2024-01-25T08:45:53;75.32;;;15.38;;
34212;SDS011;20477;51.390;8.102;2024-01-25T08:48:20;77.40;;;15.93;;
34212;SDS011;20477;51.390;8.102;2024-01-25T08:50:47;60.75;;;11.98;;
34212;SDS011;20477;51.390;8.102;2024-01-25T08:53:15;55.97;;;11.35;;
34212;SDS011;20477;51.390;8.102;2024-01-25T08:55:43;52.92;;;12.40;;
34212;SDS011;20477;51.390;8.102;2024-01-25T08:58:11;70.95;;;15.68;;
34212;SDS011;20477;51.390;8.102;2024-01-25T09:00:39;67.20;;;12.77;;
34212;SDS011;20477;51.390;8.102;2024-01-25T09:03:06;61.92;;;12.82;;
34212;SDS011;20477;51.390;8.102;2024-01-25T09:05:33;61.92;;;13.27;;
34212;SDS011;20477;51.390;8.102;2024-01-25T09:08:01;65.40;;;12.18;;
34212;SDS011;20477;51.390;8.102;2024-01-25T09:10:28;55.03;;;14.75;;
34212;SDS011;20477;51.390;8.102;2024-01-25T09:12:56;62.17;;;12.98;;
34212;SDS011;20477;51.390;8.102;2024-01-25T09:15:25;47.38;;;11.00;;
34212;SDS011;20477;51.390;8.102;2024-01-25T09:17:52;52.10;;;11.30;;
34212;SDS011;20477;51.390;8.102;2024-01-25T09:20:19;60.22;;;12.23;;
34212;SDS011;20477;51.390;8.102;2024-01-25T09:22:47;48.53;;;11.52;;
34212;SDS011;20477;51.390;8.102;2024-01-25T09:25:14;55.53;;;10.82;;
34212;SDS011;20477;51.390;8.102;2024-01-25T09:27:41;59.17;;;11.88;;
34212;SDS011;20477;51.390;8.102;2024-01-25T09:30:10;54.33;;;12.18;;
34212;SDS011;20477;51.390;8.102;2024-01-25T09:32:38;54.50;;;11.77;;
34212;SDS011;20477;51.390;8.102;2024-01-25T09:35:06;40.97;;;10.20;;
34212;SDS011;20477;51.390;8.102;2024-01-25T09:37:34;44.03;;;11.27;;
34212;SDS011;20477;51.390;8.102;2024-01-25T09:40:01;61.60;;;11.55;;
34212;SDS011;20477;51.390;8.102;2024-01-25T09:42:28;61.28;;;11.90;;
34212;SDS011;20477;51.390;8.102;2024-01-25T09:44:56;52.28;;;11.88;;
34212;SDS011;20477;51.390;8.102;2024-01-25T09:47:23;54.08;;;11.00;;
34212;SDS011;20477;51.390;8.102;2024-01-25T09:49:52;50.10;;;12.15;;
34212;SDS011;20477;51.390;8.102;2024-01-25T09:52:19;57.25;;;11.98;;
34212;SDS011;20477;51.390;8.102;2024-01-25T09:54:49;55.78;;;12.98;;
34212;SDS011;20477;51.390;8.102;2024-01-25T09:57:16;43.95;;;10.18;;
34212;SDS011;20477;51.390;8.102;2024-01-25T09:59:46;58.55;;;12.88;;
34212;SDS011;20477;51.390;8.102;2024-01-25T10:02:14;53.42;;;12.40;;
34212;SDS011;20477;51.390;8.102;2024-01-25T10:04:41;40.97;;;12.43;;
34212;SDS011;20477;51.390;8.102;2024-01-25T10:07:10;52.13;;;12.65;;
34212;SDS011;20477;51.390;8.102;2024-01-25T10:09:38;56.17;;;13.32;;
34212;SDS011;20477;51.390;8.102;2024-01-25T10:12:06;49.88;;;11.48;;
34212;SDS011;20477;51.390;8.102;2024-01-25T10:14:44;58.35;;;13.18;;
34212;SDS011;20477;51.390;8.102;2024-01-25T10:17:11;56.72;;;11.98;;
34212;SDS011;20477;51.390;8.102;2024-01-25T10:19:42;45.92;;;11.60;;
34212;SDS011;20477;51.390;8.102;2024-01-25T10:22:12;39.90;;;12.38;;
34212;SDS011;20477;51.390;8.102;2024-01-25T10:24:41;46.70;;;11.43;;
34212;SDS011;20477;51.390;8.102;2024-01-25T10:27:10;45.55;;;12.15;;
34212;SDS011;20477;51.390;8.102;2024-01-25T10:29:37;36.92;;;10.90;;
34212;SDS011;20477;51.390;8.102;2024-01-25T10:32:05;48.42;;;10.98;;
34212;SDS011;20477;51.390;8.102;2024-01-25T10:34:33;53.08;;;12.10;;
34212;SDS011;20477;51.390;8.102;2024-01-25T10:37:02;53.88;;;11.80;;
34212;SDS011;20477;51.390;8.102;2024-01-25T10:39:32;45.85;;;11.50;;
34212;SDS011;20477;51.390;8.102;2024-01-25T10:41:59;54.75;;;11.55;;
34212;SDS011;20477;51.390;8.102;2024-01-25T10:44:27;36.45;;;11.15;;
34212;SDS011;20477;51.390;8.102;2024-01-25T10:46:55;36.45;;;10.32;;
34212;SDS011;20477;51.390;8.102;2024-01-25T10:49:22;45.55;;;10.75;;
34212;SDS011;20477;51.390;8.102;2024-01-25T10:51:50;46.38;;;10.50;;
34212;SDS011;20477;51.390;8.102;2024-01-25T10:54:18;50.80;;;12.60;;
34212;SDS011;20477;51.390;8.102;2024-01-25T10:56:47;43.25;;;11.82;;
34212;SDS011;20477;51.390;8.102;2024-01-25T10:59:15;49.55;;;12.80;;
34212;SDS011;20477;51.390;8.102;2024-01-25T11:01:43;51.55;;;12.80;;
34212;SDS011;20477;51.390;8.102;2024-01-25T11:04:13;45.60;;;11.98;;
34212;SDS011;20477;51.390;8.102;2024-01-25T11:06:43;47.40;;;12.30;;
34212;SDS011;20477;51.390;8.102;2024-01-25T11:09:15;47.58;;;12.02;;
34212;SDS011;20477;51.390;8.102;2024-01-25T11:11:43;48.35;;;12.90;;
34212;SDS011;20477;51.390;8.102;2024-01-25T11:14:12;49.47;;;12.93;;
34212;SDS011;20477;51.390;8.102;2024-01-25T11:16:40;47.75;;;11.38;;
34212;SDS011;20477;51.390;8.102;2024-01-25T11:19:07;47.00;;;12.95;;
34212;SDS011;20477;51.390;8.102;2024-01-25T11:21:39;47.42;;;14.18;;
34212;SDS011;20477;51.390;8.102;2024-01-25T11:24:11;42.40;;;11.32;;
34212;SDS011;20477;51.390;8.102;2024-01-25T11:26:38;49.55;;;13.13;;
34212;SDS011;20477;51.390;8.102;2024-01-25T11:29:05;46.53;;;11.70;;
34212;SDS011;20477;51.390;8.102;2024-01-25T11:31:34;42.88;;;11.65;;
34212;SDS011;20477;51.390;8.102;2024-01-25T11:34:01;49.55;;;11.88;;
34212;SDS011;20477;51.390;8.102;2024-01-25T11:36:29;49.55;;;12.07;;
34212;SDS011;20477;51.390;8.102;2024-01-25T11:38:57;56.00;;;11.35;;
34212;SDS011;20477;51.390;8.102;2024-01-25T11:41:24;54.05;;;13.55;;
34212;SDS011;20477;51.390;8.102;2024-01-25T11:43:52;46.13;;;9.82;;
34212;SDS011;20477;51.390;8.102;2024-01-25T11:46:19;41.55;;;10.95;;
34212;SDS011;20477;51.390;8.102;2024-01-25T11:48:48;46.15;;;9.52;;
34212;SDS011;20477;51.390;8.102;2024-01-25T11:51:15;39.65;;;11.40;;
34212;SDS011;20477;51.390;8.102;2024-01-25T11:53:43;34.72;;;10.80;;
34212;SDS011;20477;51.390;8.102;2024-01-25T11:56:11;45.80;;;10.65;;
34212;SDS011;20477;51.390;8.102;2024-01-25T11:58:39;42.58;;;9.93;;
34212;SDS011;20477;51.390;8.102;2024-01-25T12:01:08;37.95;;;9.13;;
34212;SDS011;20477;51.390;8.102;2024-01-25T12:03:36;40.35;;;10.10;;
34212;SDS011;20477;51.390;8.102;2024-01-25T12:06:05;31.33;;;9.40;;
34212;SDS011;20477;51.390;8.102;2024-01-25T12:08:33;41.50;;;9.88;;
34212;SDS011;20477;51.390;8.102;2024-01-25T12:11:04;37.45;;;10.02;;
34212;SDS011;20477;51.390;8.102;2024-01-25T12:13:32;46.47;;;10.07;;
34212;SDS011;20477;51.390;8.102;2024-01-25T12:15:59;44.80;;;10.98;;
34212;SDS011;20477;51.390;8.102;2024-01-25T12:18:26;59.22;;;10.93;;
34212;SDS011;20477;51.390;8.102;2024-01-25T12:20:54;44.85;;;9.25;;
34212;SDS011;20477;51.390;8.102;2024-01-25T12:23:23;48.50;;;10.60;;
34212;SDS011;20477;51.390;8.102;2024-01-25T12:25:58;40.60;;;9.75;;
34212;SDS011;20477;51.390;8.102;2024-01-25T12:28:26;42.97;;;10.00;;
34212;SDS011;20477;51.390;8.102;2024-01-25T12:30:53;46.83;;;9.60;;
34212;SDS011;20477;51.390;8.102;2024-01-25T12:33:20;45.25;;;9.45;;
34212;SDS011;20477;51.390;8.102;2024-01-25T12:35:51;45.13;;;11.10;;
34212;SDS011;20477;51.390;8.102;2024-01-25T12:38:19;39.63;;;10.82;;
34212;SDS011;20477;51.390;8.102;2024-01-25T12:40:48;46.35;;;10.63;;
34212;SDS011;20477;51.390;8.102;2024-01-25T12:43:17;45.17;;;10.38;;
34212;SDS011;20477;51.390;8.102;2024-01-25T12:45:45;34.10;;;8.45;;
34212;SDS011;20477;51.390;8.102;2024-01-25T12:48:12;35.80;;;8.40;;
34212;SDS011;20477;51.390;8.102;2024-01-25T12:50:40;49.70;;;8.57;;
34212;SDS011;20477;51.390;8.102;2024-01-25T12:53:08;39.03;;;8.48;;
34212;SDS011;20477;51.390;8.102;2024-01-25T12:55:37;31.10;;;7.55;;
34212;SDS011;20477;51.390;8.102;2024-01-25T12:58:06;37.40;;;8.30;;
34212;SDS011;20477;51.390;8.102;2024-01-25T13:00:34;47.08;;;8.23;;
34212;SDS011;20477;51.390;8.102;2024-01-25T13:03:01;40.13;;;8.05;;
34212;SDS011;20477;51.390;8.102;2024-01-25T13:05:29;41.58;;;8.55;;
34212;SDS011;20477;51.390;8.102;2024-01-25T13:07:56;37.92;;;8.70;;
34212;SDS011;20477;51.390;8.102;2024-01-25T13:10:23;30.40;;;7.35;;
34212;SDS011;20477;51.390;8.102;2024-01-25T13:12:51;39.70;;;7.68;;
34212;SDS011;20477;51.390;8.102;2024-01-25T13:15:19;36.35;;;9.65;;
34212;SDS011;20477;51.390;8.102;2024-01-25T13:17:46;41.50;;;9.88;;
34212;SDS011;20477;51.390;8.102;2024-01-25T13:20:14;33.40;;;8.25;;
34212;SDS011;20477;51.390;8.102;2024-01-25T13:22:41;38.25;;;7.80;;
34212;SDS011;20477;51.390;8.102;2024-01-25T13:25:08;28.67;;;6.75;;
34212;SDS011;20477;51.390;8.102;2024-01-25T13:27:36;40.05;;;8.15;;
34212;SDS011;20477;51.390;8.102;2024-01-25T13:30:03;44.28;;;7.55;;
34212;SDS011;20477;51.390;8.102;2024-01-25T13:32:32;32.80;;;7.30;;
34212;SDS011;20477;51.390;8.102;2024-01-25T13:35:00;37.90;;;7.55;;
34212;SDS011;20477;51.390;8.102;2024-01-25T13:37:27;31.92;;;6.63;;
34212;SDS011;20477;51.390;8.102;2024-01-25T13:39:54;31.73;;;7.93;;
34212;SDS011;20477;51.390;8.102;2024-01-25T13:42:22;30.77;;;7.18;;
34212;SDS011;20477;51.390;8.102;2024-01-25T13:44:49;48.05;;;8.60;;
34212;SDS011;20477;51.390;8.102;2024-01-25T13:47:16;33.72;;;7.32;;
34212;SDS011;20477;51.390;8.102;2024-01-25T13:49:45;34.70;;;6.70;;
34212;SDS011;20477;51.390;8.102;2024-01-25T13:52:16;36.50;;;8.05;;
34212;SDS011;20477;51.390;8.102;2024-01-25T13:54:43;33.67;;;7.57;;
34212;SDS011;20477;51.390;8.102;2024-01-25T13:57:11;31.00;;;7.68;;
34212;SDS011;20477;51.390;8.102;2024-01-25T13:59:38;34.85;;;7.22;;
34212;SDS011;20477;51.390;8.102;2024-01-25T14:02:06;34.72;;;8.07;;
34212;SDS011;20477;51.390;8.102;2024-01-25T14:04:33;36.33;;;7.90;;
34212;SDS011;20477;51.390;8.102;2024-01-25T14:07:02;34.25;;;8.35;;
34212;SDS011;20477;51.390;8.102;2024-01-25T14:09:30;36.17;;;9.02;;
34212;SDS011;20477;51.390;8.102;2024-01-25T14:11:57;37.38;;;8.35;;
34212;SDS011;20477;51.390;8.102;2024-01-25T14:14:25;37.42;;;8.13;;
34212;SDS011;20477;51.390;8.102;2024-01-25T14:16:52;29.05;;;7.93;;
34212;SDS011;20477;51.390;8.102;2024-01-25T14:19:20;47.92;;;8.40;;
34212;SDS011;20477;51.390;8.102;2024-01-25T14:21:48;26.77;;;7.43;;
34212;SDS011;20477;51.390;8.102;2024-01-25T14:24:37;36.78;;;7.28;;
34212;SDS011;20477;51.390;8.102;2024-01-25T14:27:04;32.63;;;7.45;;
34212;SDS011;20477;51.390;8.102;2024-01-25T14:29:32;31.80;;;7.10;;